sensor_id;sensor_type;location;lat;lon;timestamp;temperature;humidity
41178;DHT22;26912;54.292;18.574;2022-10-15T00:03:33;24.30;48.00
41178;DHT22;26912;54.292;18.574;2022-10-15T00:06:08;24.30;48.10
41178;DHT22;26912;54.292;18.574;2022-10-15T00:08:35;24.20;48.00
41178;DHT22;26912;54.292;18.574;2022-10-15T00:11:11;24.10;48.50
41178;DHT22;26912;54.292;18.574;2022-10-15T00:13:38;24.10;48.50
41178;DHT22;26912;54.292;18.574;2022-10-15T00:16:07;24.20;48.30
41178;DHT22;26912;54.292;18.574;2022-10-15T00:18:35;24.30;48.30
41178;DHT22;26912;54.292;18.574;2022-10-15T00:21:07;24.40;48.20
41178;DHT22;26912;54.292;18.574;2022-10-15T00:23:34;24.40;48.20
41178;DHT22;26912;54.292;18.574;2022-10-15T00:26:03;24.40;48.50
41178;DHT22;26912;54.292;18.574;2022-10-15T00:28:30;24.50;48.50
41178;DHT22;26912;54.292;18.574;2022-10-15T00:31:01;24.50;48.40
41178;DHT22;26912;54.292;18.574;2022-10-15T00:33:28;24.50;48.30
41178;DHT22;26912;54.292;18.574;2022-10-15T00:36:07;24.50;48.00
41178;DHT22;26912;54.292;18.574;2022-10-15T00:38:35;24.50;47.80
41178;DHT22;26912;54.292;18.574;2022-10-15T00:41:02;24.40;47.50
41178;DHT22;26912;54.292;18.574;2022-10-15T00:43:41;24.40;48.00
41178;DHT22;26912;54.292;18.574;2022-10-15T00:49:16;24.20;48.60
41178;DHT22;26912;54.292;18.574;2022-10-15T00:51:48;24.10;48.90
41178;DHT22;26912;54.292;18.574;2022-10-15T00:54:18;24.20;49.00
41178;DHT22;26912;54.292;18.574;2022-10-15T00:56:48;24.30;49.30
41178;DHT22;26912;54.292;18.574;2022-10-15T00:59:17;24.20;49.50
41178;DHT22;26912;54.292;18.574;2022-10-15T01:01:45;24.30;49.50
41178;DHT22;26912;54.292;18.574;2022-10-15T01:04:12;24.40;49.40
41178;DHT22;26912;54.292;18.574;2022-10-15T01:06:40;24.30;49.50
41178;DHT22;26912;54.292;18.574;2022-10-15T01:09:08;24.30;49.80
41178;DHT22;26912;54.292;18.574;2022-10-15T01:11:47;24.20;49.90
41178;DHT22;26912;54.292;18.574;2022-10-15T01:14:42;24.40;50.10
41178;DHT22;26912;54.292;18.574;2022-10-15T01:17:39;24.50;49.90
41178;DHT22;26912;54.292;18.574;2022-10-15T01:34:23;24.60;49.10
41178;DHT22;26912;54.292;18.574;2022-10-15T01:39:57;24.80;48.40
41178;DHT22;26912;54.292;18.574;2022-10-15T01:42:29;24.90;48.00
41178;DHT22;26912;54.292;18.574;2022-10-15T01:45:05;24.80;48.10
41178;DHT22;26912;54.292;18.574;2022-10-15T01:47:53;24.90;47.90
41178;DHT22;26912;54.292;18.574;2022-10-15T01:50:24;25.00;47.90
41178;DHT22;26912;54.292;18.574;2022-10-15T01:52:51;25.00;48.10
41178;DHT22;26912;54.292;18.574;2022-10-15T01:55:22;25.00;48.10
41178;DHT22;26912;54.292;18.574;2022-10-15T01:57:51;25.00;48.00
41178;DHT22;26912;54.292;18.574;2022-10-15T02:00:19;25.10;47.90
41178;DHT22;26912;54.292;18.574;2022-10-15T02:02:45;25.10;48.60
41178;DHT22;26912;54.292;18.574;2022-10-15T02:05:19;25.00;47.90
41178;DHT22;26912;54.292;18.574;2022-10-15T02:08:11;25.00;47.90
41178;DHT22;26912;54.292;18.574;2022-10-15T02:10:55;25.00;47.80
41178;DHT22;26912;54.292;18.574;2022-10-15T02:21:38;24.90;48.30
41178;DHT22;26912;54.292;18.574;2022-10-15T02:24:26;24.70;48.50
41178;DHT22;26912;54.292;18.574;2022-10-15T02:26:56;24.40;49.00
41178;DHT22;26912;54.292;18.574;2022-10-15T02:29:27;24.30;49.40
41178;DHT22;26912;54.292;18.574;2022-10-15T02:31:58;24.30;49.60
41178;DHT22;26912;54.292;18.574;2022-10-15T02:34:28;24.20;49.70
41178;DHT22;26912;54.292;18.574;2022-10-15T02:36:57;24.30;49.80
41178;DHT22;26912;54.292;18.574;2022-10-15T02:39:26;24.50;49.40
41178;DHT22;26912;54.292;18.574;2022-10-15T02:41:53;24.60;49.30
41178;DHT22;26912;54.292;18.574;2022-10-15T02:44:20;24.60;49.10
41178;DHT22;26912;54.292;18.574;2022-10-15T02:46:47;24.70;49.10
41178;DHT22;26912;54.292;18.574;2022-10-15T02:49:15;24.80;49.00
41178;DHT22;26912;54.292;18.574;2022-10-15T02:51:42;24.80;48.70
41178;DHT22;26912;54.292;18.574;2022-10-15T02:54:08;24.90;48.70
41178;DHT22;26912;54.292;18.574;2022-10-15T02:56:35;24.90;48.50
41178;DHT22;26912;54.292;18.574;2022-10-15T02:59:05;24.90;48.40
41178;DHT22;26912;54.292;18.574;2022-10-15T03:01:33;25.00;48.20
41178;DHT22;26912;54.292;18.574;2022-10-15T03:04:00;25.10;48.20
41178;DHT22;26912;54.292;18.574;2022-10-15T03:06:28;25.10;48.20
41178;DHT22;26912;54.292;18.574;2022-10-15T03:08:54;25.10;48.10
41178;DHT22;26912;54.292;18.574;2022-10-15T03:11:22;25.00;48.10
41178;DHT22;26912;54.292;18.574;2022-10-15T03:13:48;24.90;48.30
41178;DHT22;26912;54.292;18.574;2022-10-15T03:16:15;24.90;48.40
41178;DHT22;26912;54.292;18.574;2022-10-15T03:18:44;24.80;48.40
41178;DHT22;26912;54.292;18.574;2022-10-15T03:21:11;24.80;48.70
41178;DHT22;26912;54.292;18.574;2022-10-15T03:23:38;24.80;48.70
41178;DHT22;26912;54.292;18.574;2022-10-15T03:26:14;24.90;48.60
41178;DHT22;26912;54.292;18.574;2022-10-15T03:28:41;24.90;48.80
41178;DHT22;26912;54.292;18.574;2022-10-15T03:31:08;24.90;48.50
41178;DHT22;26912;54.292;18.574;2022-10-15T03:33:35;24.90;48.60
41178;DHT22;26912;54.292;18.574;2022-10-15T03:36:02;24.80;48.60
41178;DHT22;26912;54.292;18.574;2022-10-15T03:38:29;24.70;48.60
41178;DHT22;26912;54.292;18.574;2022-10-15T03:40:55;24.70;48.70
41178;DHT22;26912;54.292;18.574;2022-10-15T03:43:31;24.60;48.80
41178;DHT22;26912;54.292;18.574;2022-10-15T03:46:02;24.50;49.10
41178;DHT22;26912;54.292;18.574;2022-10-15T03:48:29;24.50;49.30
41178;DHT22;26912;54.292;18.574;2022-10-15T03:50:56;24.70;49.10
41178;DHT22;26912;54.292;18.574;2022-10-15T03:53:23;24.80;48.90
41178;DHT22;26912;54.292;18.574;2022-10-15T03:55:49;24.90;48.60
41178;DHT22;26912;54.292;18.574;2022-10-15T03:58:16;24.80;48.60
41178;DHT22;26912;54.292;18.574;2022-10-15T04:00:49;24.80;48.40
41178;DHT22;26912;54.292;18.574;2022-10-15T04:03:16;24.70;48.50
41178;DHT22;26912;54.292;18.574;2022-10-15T04:05:49;24.70;48.20
41178;DHT22;26912;54.292;18.574;2022-10-15T04:08:16;24.80;48.00
41178;DHT22;26912;54.292;18.574;2022-10-15T04:10:43;24.70;47.90
41178;DHT22;26912;54.292;18.574;2022-10-15T04:13:09;24.60;48.10
41178;DHT22;26912;54.292;18.574;2022-10-15T04:15:40;24.60;48.20
41178;DHT22;26912;54.292;18.574;2022-10-15T04:18:10;24.50;48.50
41178;DHT22;26912;54.292;18.574;2022-10-15T04:20:37;24.30;48.60
41178;DHT22;26912;54.292;18.574;2022-10-15T04:23:16;24.10;49.30
41178;DHT22;26912;54.292;18.574;2022-10-15T04:26:02;23.90;49.60
41178;DHT22;26912;54.292;18.574;2022-10-15T04:28:29;23.80;50.20
41178;DHT22;26912;54.292;18.574;2022-10-15T04:30:59;23.80;50.30
41178;DHT22;26912;54.292;18.574;2022-10-15T04:33:27;23.70;50.70
41178;DHT22;26912;54.292;18.574;2022-10-15T04:36:08;23.80;50.60
41178;DHT22;26912;54.292;18.574;2022-10-15T04:39:04;23.90;50.60
41178;DHT22;26912;54.292;18.574;2022-10-15T04:41:36;24.00;50.10
41178;DHT22;26912;54.292;18.574;2022-10-15T04:44:09;24.00;49.70
41178;DHT22;26912;54.292;18.574;2022-10-15T04:46:37;24.10;49.70
41178;DHT22;26912;54.292;18.574;2022-10-15T04:49:24;24.10;49.60
41178;DHT22;26912;54.292;18.574;2022-10-15T04:51:51;24.00;49.80
41178;DHT22;26912;54.292;18.574;2022-10-15T04:54:22;24.00;49.40
41178;DHT22;26912;54.292;18.574;2022-10-15T04:56:58;23.90;49.10
41178;DHT22;26912;54.292;18.574;2022-10-15T04:59:24;23.90;49.50
41178;DHT22;26912;54.292;18.574;2022-10-15T05:02:10;23.80;49.90
41178;DHT22;26912;54.292;18.574;2022-10-15T05:04:37;23.60;50.00
41178;DHT22;26912;54.292;18.574;2022-10-15T05:07:03;23.60;50.50
41178;DHT22;26912;54.292;18.574;2022-10-15T05:09:31;23.70;50.40
41178;DHT22;26912;54.292;18.574;2022-10-15T05:11:58;23.70;50.00
41178;DHT22;26912;54.292;18.574;2022-10-15T05:14:26;23.60;50.40
41178;DHT22;26912;54.292;18.574;2022-10-15T05:17:11;23.70;50.30
41178;DHT22;26912;54.292;18.574;2022-10-15T05:19:40;23.80;50.30
41178;DHT22;26912;54.292;18.574;2022-10-15T05:22:10;23.90;50.40
41178;DHT22;26912;54.292;18.574;2022-10-15T05:24:43;23.90;50.30
41178;DHT22;26912;54.292;18.574;2022-10-15T05:27:24;24.00;50.10
41178;DHT22;26912;54.292;18.574;2022-10-15T05:29:51;23.90;50.40
41178;DHT22;26912;54.292;18.574;2022-10-15T05:32:17;24.00;50.50
41178;DHT22;26912;54.292;18.574;2022-10-15T05:34:44;24.10;50.40
41178;DHT22;26912;54.292;18.574;2022-10-15T05:37:14;24.10;50.30
41178;DHT22;26912;54.292;18.574;2022-10-15T05:39:41;24.10;50.60
41178;DHT22;26912;54.292;18.574;2022-10-15T05:42:09;24.10;50.60
41178;DHT22;26912;54.292;18.574;2022-10-15T05:44:49;24.10;50.60
41178;DHT22;26912;54.292;18.574;2022-10-15T05:47:16;24.20;50.60
41178;DHT22;26912;54.292;18.574;2022-10-15T05:49:42;24.10;50.70
41178;DHT22;26912;54.292;18.574;2022-10-15T05:52:17;24.20;50.70
41178;DHT22;26912;54.292;18.574;2022-10-15T05:55:15;24.30;50.50
41178;DHT22;26912;54.292;18.574;2022-10-15T05:57:42;24.20;50.60
41178;DHT22;26912;54.292;18.574;2022-10-15T06:00:09;24.20;50.70
41178;DHT22;26912;54.292;18.574;2022-10-15T06:02:38;24.20;50.80
41178;DHT22;26912;54.292;18.574;2022-10-15T06:05:05;24.10;50.80
41178;DHT22;26912;54.292;18.574;2022-10-15T06:07:31;23.90;51.20
41178;DHT22;26912;54.292;18.574;2022-10-15T06:10:03;23.80;51.50
41178;DHT22;26912;54.292;18.574;2022-10-15T06:12:33;23.70;52.00
41178;DHT22;26912;54.292;18.574;2022-10-15T06:15:00;23.80;52.30
41178;DHT22;26912;54.292;18.574;2022-10-15T06:17:26;23.90;52.10
41178;DHT22;26912;54.292;18.574;2022-10-15T06:19:53;23.70;52.50
41178;DHT22;26912;54.292;18.574;2022-10-15T06:22:19;23.80;53.30
41178;DHT22;26912;54.292;18.574;2022-10-15T06:24:45;23.80;52.70
41178;DHT22;26912;54.292;18.574;2022-10-15T06:27:12;23.80;52.70
41178;DHT22;26912;54.292;18.574;2022-10-15T06:29:39;23.70;52.80
41178;DHT22;26912;54.292;18.574;2022-10-15T06:32:09;23.60;52.90
41178;DHT22;26912;54.292;18.574;2022-10-15T06:34:40;23.60;53.20
41178;DHT22;26912;54.292;18.574;2022-10-15T06:37:06;23.50;53.40
41178;DHT22;26912;54.292;18.574;2022-10-15T06:39:33;23.60;53.60
41178;DHT22;26912;54.292;18.574;2022-10-15T06:42:00;23.50;53.50
41178;DHT22;26912;54.292;18.574;2022-10-15T06:44:38;23.50;53.60
41178;DHT22;26912;54.292;18.574;2022-10-15T06:47:04;23.60;53.60
41178;DHT22;26912;54.292;18.574;2022-10-15T06:49:31;23.60;53.60
41178;DHT22;26912;54.292;18.574;2022-10-15T06:51:58;23.70;53.50
41178;DHT22;26912;54.292;18.574;2022-10-15T06:54:24;23.80;53.40
41178;DHT22;26912;54.292;18.574;2022-10-15T06:56:51;23.90;53.00
41178;DHT22;26912;54.292;18.574;2022-10-15T06:59:17;23.80;52.90
41178;DHT22;26912;54.292;18.574;2022-10-15T07:01:43;23.70;52.90
41178;DHT22;26912;54.292;18.574;2022-10-15T07:04:10;23.70;53.10
41178;DHT22;26912;54.292;18.574;2022-10-15T07:06:36;23.80;53.30
41178;DHT22;26912;54.292;18.574;2022-10-15T07:09:03;24.10;53.10
41178;DHT22;26912;54.292;18.574;2022-10-15T07:11:30;24.20;52.90
41178;DHT22;26912;54.292;18.574;2022-10-15T07:13:57;23.80;54.10
41178;DHT22;26912;54.292;18.574;2022-10-15T07:16:23;23.90;53.90
41178;DHT22;26912;54.292;18.574;2022-10-15T07:18:50;23.80;54.00
41178;DHT22;26912;54.292;18.574;2022-10-15T07:21:16;23.80;54.10
41178;DHT22;26912;54.292;18.574;2022-10-15T07:23:43;23.90;54.30
41178;DHT22;26912;54.292;18.574;2022-10-15T07:26:09;24.20;53.90
41178;DHT22;26912;54.292;18.574;2022-10-15T07:28:37;24.30;53.60
41178;DHT22;26912;54.292;18.574;2022-10-15T07:31:05;24.40;53.50
41178;DHT22;26912;54.292;18.574;2022-10-15T07:33:32;24.50;53.20
41178;DHT22;26912;54.292;18.574;2022-10-15T07:36:04;24.70;53.30
41178;DHT22;26912;54.292;18.574;2022-10-15T07:38:32;24.70;53.00
41178;DHT22;26912;54.292;18.574;2022-10-15T07:40:59;25.00;52.70
41178;DHT22;26912;54.292;18.574;2022-10-15T07:43:26;25.00;52.60
41178;DHT22;26912;54.292;18.574;2022-10-15T07:45:53;25.10;52.40
41178;DHT22;26912;54.292;18.574;2022-10-15T07:48:19;25.20;52.30
41178;DHT22;26912;54.292;18.574;2022-10-15T07:50:46;25.10;52.10
41178;DHT22;26912;54.292;18.574;2022-10-15T07:53:12;25.40;52.60
41178;DHT22;26912;54.292;18.574;2022-10-15T07:55:39;25.70;52.30
41178;DHT22;26912;54.292;18.574;2022-10-15T07:58:05;25.70;51.80
41178;DHT22;26912;54.292;18.574;2022-10-15T08:00:33;25.90;51.80
41178;DHT22;26912;54.292;18.574;2022-10-15T08:02:59;25.90;51.60
41178;DHT22;26912;54.292;18.574;2022-10-15T08:05:26;25.80;51.30
41178;DHT22;26912;54.292;18.574;2022-10-15T08:07:52;25.70;51.30
41178;DHT22;26912;54.292;18.574;2022-10-15T08:10:19;25.80;51.70
41178;DHT22;26912;54.292;18.574;2022-10-15T08:12:45;25.80;51.30
41178;DHT22;26912;54.292;18.574;2022-10-15T08:15:11;25.80;51.20
41178;DHT22;26912;54.292;18.574;2022-10-15T08:17:38;25.80;51.10
41178;DHT22;26912;54.292;18.574;2022-10-15T08:20:05;25.90;50.80
41178;DHT22;26912;54.292;18.574;2022-10-15T08:22:32;25.90;50.70
41178;DHT22;26912;54.292;18.574;2022-10-15T08:24:59;25.70;50.80
41178;DHT22;26912;54.292;18.574;2022-10-15T08:27:26;25.70;51.00
41178;DHT22;26912;54.292;18.574;2022-10-15T08:29:56;25.80;51.20
41178;DHT22;26912;54.292;18.574;2022-10-15T08:32:23;26.10;51.60
41178;DHT22;26912;54.292;18.574;2022-10-15T08:34:49;26.30;50.70
41178;DHT22;26912;54.292;18.574;2022-10-15T08:37:15;26.30;50.40
41178;DHT22;26912;54.292;18.574;2022-10-15T08:39:42;26.40;50.70
41178;DHT22;26912;54.292;18.574;2022-10-15T08:42:21;26.60;50.40
41178;DHT22;26912;54.292;18.574;2022-10-15T08:45:03;26.60;50.30
41178;DHT22;26912;54.292;18.574;2022-10-15T08:47:44;27.10;50.30
41178;DHT22;26912;54.292;18.574;2022-10-15T08:50:19;27.30;49.90
41178;DHT22;26912;54.292;18.574;2022-10-15T08:52:51;27.30;49.50
41178;DHT22;26912;54.292;18.574;2022-10-15T08:55:20;27.40;49.10
41178;DHT22;26912;54.292;18.574;2022-10-15T08:58:00;27.80;48.90
41178;DHT22;26912;54.292;18.574;2022-10-15T09:00:37;28.30;48.50
41178;DHT22;26912;54.292;18.574;2022-10-15T09:03:26;28.80;47.70
41178;DHT22;26912;54.292;18.574;2022-10-15T09:09:10;29.40;46.80
41178;DHT22;26912;54.292;18.574;2022-10-15T09:14:34;30.50;45.30
41178;DHT22;26912;54.292;18.574;2022-10-15T09:17:06;30.70;44.70
41178;DHT22;26912;54.292;18.574;2022-10-15T09:19:41;30.60;43.60
41178;DHT22;26912;54.292;18.574;2022-10-15T09:22:14;30.90;43.90
41178;DHT22;26912;54.292;18.574;2022-10-15T09:24:44;31.40;43.60
41178;DHT22;26912;54.292;18.574;2022-10-15T09:27:26;31.00;41.60
41178;DHT22;26912;54.292;18.574;2022-10-15T09:30:32;30.30;42.20
41178;DHT22;26912;54.292;18.574;2022-10-15T09:33:12;30.00;43.00
41178;DHT22;26912;54.292;18.574;2022-10-15T09:35:54;29.80;43.00
41178;DHT22;26912;54.292;18.574;2022-10-15T09:44:09;28.10;44.70
41178;DHT22;26912;54.292;18.574;2022-10-15T09:46:46;28.00;45.40
41178;DHT22;26912;54.292;18.574;2022-10-15T09:49:23;28.00;45.80
41178;DHT22;26912;54.292;18.574;2022-10-15T09:57:16;27.80;46.00
41178;DHT22;26912;54.292;18.574;2022-10-15T10:00:03;27.50;46.50
41178;DHT22;26912;54.292;18.574;2022-10-15T10:02:38;27.30;47.20
41178;DHT22;26912;54.292;18.574;2022-10-15T10:05:29;27.40;47.70
41178;DHT22;26912;54.292;18.574;2022-10-15T10:08:16;27.50;47.60
41178;DHT22;26912;54.292;18.574;2022-10-15T10:10:56;27.30;47.60
41178;DHT22;26912;54.292;18.574;2022-10-15T10:13:32;27.30;47.80
41178;DHT22;26912;54.292;18.574;2022-10-15T10:16:08;27.40;48.10
41178;DHT22;26912;54.292;18.574;2022-10-15T10:18:35;27.50;47.60
41178;DHT22;26912;54.292;18.574;2022-10-15T10:21:23;27.40;47.50
41178;DHT22;26912;54.292;18.574;2022-10-15T10:23:51;27.30;48.10
41178;DHT22;26912;54.292;18.574;2022-10-15T10:26:19;27.30;48.20
41178;DHT22;26912;54.292;18.574;2022-10-15T10:28:54;27.20;48.20
41178;DHT22;26912;54.292;18.574;2022-10-15T10:31:30;27.10;48.60
41178;DHT22;26912;54.292;18.574;2022-10-15T10:34:00;26.80;49.10
41178;DHT22;26912;54.292;18.574;2022-10-15T10:36:30;26.60;49.60
41178;DHT22;26912;54.292;18.574;2022-10-15T10:42:04;26.40;50.30
41178;DHT22;26912;54.292;18.574;2022-10-15T10:44:36;26.10;51.00
41178;DHT22;26912;54.292;18.574;2022-10-15T10:49:42;26.10;52.60
41178;DHT22;26912;54.292;18.574;2022-10-15T10:52:28;26.20;52.10
41178;DHT22;26912;54.292;18.574;2022-10-15T10:57:45;26.60;52.40
41178;DHT22;26912;54.292;18.574;2022-10-15T11:00:23;26.70;52.10
41178;DHT22;26912;54.292;18.574;2022-10-15T11:02:51;26.80;51.80
41178;DHT22;26912;54.292;18.574;2022-10-15T11:05:26;26.90;51.90
41178;DHT22;26912;54.292;18.574;2022-10-15T11:08:15;27.00;51.70
41178;DHT22;26912;54.292;18.574;2022-10-15T11:16:14;26.80;51.50
41178;DHT22;26912;54.292;18.574;2022-10-15T11:24:32;26.80;52.00
41178;DHT22;26912;54.292;18.574;2022-10-15T11:46:05;27.50;51.30
41178;DHT22;26912;54.292;18.574;2022-10-15T11:48:43;27.80;51.00
41178;DHT22;26912;54.292;18.574;2022-10-15T11:57:12;28.60;50.10
41178;DHT22;26912;54.292;18.574;2022-10-15T11:59:54;28.50;49.60
41178;DHT22;26912;54.292;18.574;2022-10-15T12:02:23;28.30;50.10
41178;DHT22;26912;54.292;18.574;2022-10-15T12:04:55;28.30;49.50
41178;DHT22;26912;54.292;18.574;2022-10-15T12:07:32;28.30;49.50
41178;DHT22;26912;54.292;18.574;2022-10-15T12:10:08;28.10;49.00
41178;DHT22;26912;54.292;18.574;2022-10-15T12:18:16;27.00;49.70
41178;DHT22;26912;54.292;18.574;2022-10-15T12:20:46;27.20;50.30
41178;DHT22;26912;54.292;18.574;2022-10-15T12:23:24;27.30;50.40
41178;DHT22;26912;54.292;18.574;2022-10-15T12:25:53;27.30;50.40
41178;DHT22;26912;54.292;18.574;2022-10-15T12:28:23;27.40;50.50
41178;DHT22;26912;54.292;18.574;2022-10-15T12:30:57;27.50;50.30
41178;DHT22;26912;54.292;18.574;2022-10-15T12:33:34;27.50;50.20
41178;DHT22;26912;54.292;18.574;2022-10-15T12:36:16;27.50;50.20
41178;DHT22;26912;54.292;18.574;2022-10-15T12:41:43;27.80;49.90
41178;DHT22;26912;54.292;18.574;2022-10-15T12:44:31;28.00;49.70
41178;DHT22;26912;54.292;18.574;2022-10-15T12:46:59;28.90;49.50
41178;DHT22;26912;54.292;18.574;2022-10-15T12:51:55;28.80;48.00
41178;DHT22;26912;54.292;18.574;2022-10-15T12:59:57;27.80;48.70
41178;DHT22;26912;54.292;18.574;2022-10-15T13:05:03;27.70;49.50
41178;DHT22;26912;54.292;18.574;2022-10-15T13:07:32;28.00;49.60
41178;DHT22;26912;54.292;18.574;2022-10-15T13:10:02;28.30;49.30
41178;DHT22;26912;54.292;18.574;2022-10-15T13:12:29;28.60;49.30
41178;DHT22;26912;54.292;18.574;2022-10-15T13:15:01;28.70;48.40
41178;DHT22;26912;54.292;18.574;2022-10-15T13:17:29;28.00;49.30
41178;DHT22;26912;54.292;18.574;2022-10-15T13:20:00;27.40;49.40
41178;DHT22;26912;54.292;18.574;2022-10-15T13:22:32;27.00;50.10
41178;DHT22;26912;54.292;18.574;2022-10-15T13:24:59;26.90;50.70
41178;DHT22;26912;54.292;18.574;2022-10-15T13:27:30;27.10;51.20
41178;DHT22;26912;54.292;18.574;2022-10-15T13:30:13;27.20;50.40
41178;DHT22;26912;54.292;18.574;2022-10-15T13:32:52;27.00;50.90
41178;DHT22;26912;54.292;18.574;2022-10-15T13:35:22;26.90;50.90
41178;DHT22;26912;54.292;18.574;2022-10-15T13:37:51;26.90;51.20
41178;DHT22;26912;54.292;18.574;2022-10-15T13:40:29;26.90;51.40
41178;DHT22;26912;54.292;18.574;2022-10-15T13:45:25;26.60;51.20
41178;DHT22;26912;54.292;18.574;2022-10-15T13:47:53;26.20;51.90
41178;DHT22;26912;54.292;18.574;2022-10-15T13:50:29;26.00;52.70
41178;DHT22;26912;54.292;18.574;2022-10-15T13:53:33;26.30;52.50
41178;DHT22;26912;54.292;18.574;2022-10-15T13:56:23;26.50;52.30
41178;DHT22;26912;54.292;18.574;2022-10-15T13:58:50;26.40;52.30
41178;DHT22;26912;54.292;18.574;2022-10-15T14:01:23;26.30;52.70
41178;DHT22;26912;54.292;18.574;2022-10-15T14:03:53;26.30;52.70
41178;DHT22;26912;54.292;18.574;2022-10-15T14:09:17;26.40;52.80
41178;DHT22;26912;54.292;18.574;2022-10-15T14:11:42;26.20;53.50
41178;DHT22;26912;54.292;18.574;2022-10-15T14:14:37;26.40;53.20
41178;DHT22;26912;54.292;18.574;2022-10-15T14:17:09;26.30;53.40
41178;DHT22;26912;54.292;18.574;2022-10-15T14:19:39;26.50;53.00
41178;DHT22;26912;54.292;18.574;2022-10-15T14:22:06;26.30;52.90
41178;DHT22;26912;54.292;18.574;2022-10-15T14:24:33;26.00;53.20
41178;DHT22;26912;54.292;18.574;2022-10-15T14:27:33;25.70;53.70
41178;DHT22;26912;54.292;18.574;2022-10-15T14:29:59;25.80;54.20
41178;DHT22;26912;54.292;18.574;2022-10-15T14:32:30;26.10;53.70
41178;DHT22;26912;54.292;18.574;2022-10-15T14:35:00;26.10;53.40
41178;DHT22;26912;54.292;18.574;2022-10-15T14:37:41;26.30;53.00
41178;DHT22;26912;54.292;18.574;2022-10-15T14:45:24;26.80;52.60
41178;DHT22;26912;54.292;18.574;2022-10-15T14:47:59;26.90;52.20
41178;DHT22;26912;54.292;18.574;2022-10-15T14:50:31;26.70;52.00
41178;DHT22;26912;54.292;18.574;2022-10-15T14:53:00;26.30;52.70
41178;DHT22;26912;54.292;18.574;2022-10-15T14:55:36;26.40;52.70
41178;DHT22;26912;54.292;18.574;2022-10-15T14:58:13;26.20;52.80
41178;DHT22;26912;54.292;18.574;2022-10-15T15:00:46;25.90;53.30
41178;DHT22;26912;54.292;18.574;2022-10-15T15:03:18;25.50;54.20
41178;DHT22;26912;54.292;18.574;2022-10-15T15:05:50;25.80;54.20
41178;DHT22;26912;54.292;18.574;2022-10-15T15:08:19;26.20;54.20
41178;DHT22;26912;54.292;18.574;2022-10-15T15:10:46;26.40;53.30
41178;DHT22;26912;54.292;18.574;2022-10-15T15:13:21;26.30;53.10
41178;DHT22;26912;54.292;18.574;2022-10-15T15:15:47;26.30;53.20
41178;DHT22;26912;54.292;18.574;2022-10-15T15:18:14;26.30;53.10
41178;DHT22;26912;54.292;18.574;2022-10-15T15:20:41;26.20;53.60
41178;DHT22;26912;54.292;18.574;2022-10-15T15:23:29;26.10;53.50
41178;DHT22;26912;54.292;18.574;2022-10-15T15:25:56;26.10;53.50
41178;DHT22;26912;54.292;18.574;2022-10-15T15:28:26;26.20;53.80
41178;DHT22;26912;54.292;18.574;2022-10-15T15:31:00;26.30;53.30
41178;DHT22;26912;54.292;18.574;2022-10-15T15:33:28;26.30;53.30
41178;DHT22;26912;54.292;18.574;2022-10-15T15:38:26;26.20;53.70
41178;DHT22;26912;54.292;18.574;2022-10-15T15:41:16;26.30;53.60
41178;DHT22;26912;54.292;18.574;2022-10-15T15:43:43;26.40;53.40
41178;DHT22;26912;54.292;18.574;2022-10-15T15:46:11;26.30;53.60
41178;DHT22;26912;54.292;18.574;2022-10-15T15:48:38;26.60;53.40
41178;DHT22;26912;54.292;18.574;2022-10-15T15:53:47;26.30;53.20
41178;DHT22;26912;54.292;18.574;2022-10-15T15:56:14;25.90;54.10
41178;DHT22;26912;54.292;18.574;2022-10-15T15:58:40;25.90;54.50
41178;DHT22;26912;54.292;18.574;2022-10-15T16:01:07;26.10;54.30
41178;DHT22;26912;54.292;18.574;2022-10-15T16:03:34;26.20;53.90
41178;DHT22;26912;54.292;18.574;2022-10-15T16:06:04;26.30;53.90
41178;DHT22;26912;54.292;18.574;2022-10-15T16:08:32;26.40;53.70
41178;DHT22;26912;54.292;18.574;2022-10-15T16:11:03;26.50;53.70
41178;DHT22;26912;54.292;18.574;2022-10-15T16:13:30;26.50;53.40
41178;DHT22;26912;54.292;18.574;2022-10-15T16:15:57;26.30;53.40
41178;DHT22;26912;54.292;18.574;2022-10-15T16:18:24;26.20;53.90
41178;DHT22;26912;54.292;18.574;2022-10-15T16:20:50;26.20;53.90
41178;DHT22;26912;54.292;18.574;2022-10-15T16:23:17;26.10;53.90
41178;DHT22;26912;54.292;18.574;2022-10-15T16:25:43;26.00;54.10
41178;DHT22;26912;54.292;18.574;2022-10-15T16:28:10;26.00;54.30
41178;DHT22;26912;54.292;18.574;2022-10-15T16:30:36;26.10;54.20
41178;DHT22;26912;54.292;18.574;2022-10-15T16:33:03;26.20;53.90
41178;DHT22;26912;54.292;18.574;2022-10-15T16:35:31;26.00;54.10
41178;DHT22;26912;54.292;18.574;2022-10-15T16:37:58;26.20;54.10
41178;DHT22;26912;54.292;18.574;2022-10-15T16:40:25;26.40;54.00
41178;DHT22;26912;54.292;18.574;2022-10-15T16:42:52;26.40;53.70
41178;DHT22;26912;54.292;18.574;2022-10-15T16:45:19;26.40;53.60
41178;DHT22;26912;54.292;18.574;2022-10-15T16:47:45;26.40;53.70
41178;DHT22;26912;54.292;18.574;2022-10-15T16:50:11;26.30;53.70
41178;DHT22;26912;54.292;18.574;2022-10-15T16:52:38;26.30;53.90
41178;DHT22;26912;54.292;18.574;2022-10-15T16:55:05;26.30;53.80
41178;DHT22;26912;54.292;18.574;2022-10-15T16:57:33;26.40;54.00
41178;DHT22;26912;54.292;18.574;2022-10-15T17:00:00;26.50;53.90
41178;DHT22;26912;54.292;18.574;2022-10-15T17:02:26;26.70;53.50
41178;DHT22;26912;54.292;18.574;2022-10-15T17:04:53;26.50;53.50
41178;DHT22;26912;54.292;18.574;2022-10-15T17:07:19;26.50;53.80
41178;DHT22;26912;54.292;18.574;2022-10-15T17:09:46;26.40;53.60
41178;DHT22;26912;54.292;18.574;2022-10-15T17:12:13;26.30;54.00
41178;DHT22;26912;54.292;18.574;2022-10-15T17:14:39;26.30;54.00
41178;DHT22;26912;54.292;18.574;2022-10-15T17:17:06;26.10;54.30
41178;DHT22;26912;54.292;18.574;2022-10-15T17:19:32;26.20;54.50
41178;DHT22;26912;54.292;18.574;2022-10-15T17:22:00;26.30;54.40
41178;DHT22;26912;54.292;18.574;2022-10-15T17:24:27;26.50;54.50
41178;DHT22;26912;54.292;18.574;2022-10-15T17:26:54;26.70;53.90
41178;DHT22;26912;54.292;18.574;2022-10-15T17:29:23;26.60;54.40
41178;DHT22;26912;54.292;18.574;2022-10-15T17:31:50;26.70;53.80
41178;DHT22;26912;54.292;18.574;2022-10-15T17:34:17;26.50;53.60
41178;DHT22;26912;54.292;18.574;2022-10-15T17:36:46;26.30;54.20
41178;DHT22;26912;54.292;18.574;2022-10-15T17:39:18;26.30;54.20
41178;DHT22;26912;54.292;18.574;2022-10-15T17:41:46;26.50;54.30
41178;DHT22;26912;54.292;18.574;2022-10-15T17:44:12;26.50;54.20
41178;DHT22;26912;54.292;18.574;2022-10-15T17:46:39;26.70;54.00